Wetterdaten: Woche 21.01.02 - 27.01.02 (KW4)
Datum Zeit Temperatur Luftfeuchte Luftdruck Regenmenge Wind Richtung Taupunkt Windchill
21.01.2002 00:00 4.7 C 74 % 1026.2 hPa 0.0 l/m 4.8 km/h (1 Bft) W 0.4 C 3.7 C
21.01.2002 01:00 4.0 C 73 % 1026.2 hPa 0.0 l/m 5.1 km/h (1 Bft) SO -0.3 C 3.0 C
21.01.2002 02:00 3.7 C 74 % 1025.2 hPa 0.0 l/m 7.6 km/h (2 Bft) O-SO -0.4 C 2.0 C
21.01.2002 03:00 3.8 C 73 % 1025.6 hPa 0.3 l/m 1.9 km/h (1 Bft) SO -0.5 C 3.4 C
21.01.2002 04:00 2.9 C 87 % 1025.7 hPa 2.2 l/m 1.1 km/h (1 Bft) W-SW 0.9 C 2.8 C
21.01.2002 05:00 2.9 C 92 % 1025.1 hPa 0.3 l/m 6.7 km/h (2 Bft) SO 1.7 C 1.2 C
21.01.2002 06:00 2.9 C 89 % 1025.8 hPa 0.0 l/m 10.2 km/h (2 Bft) O-SO 1.3 C 0.1 C
21.01.2002 07:00 2.9 C 89 % 1025.5 hPa 0.0 l/m 3.3 km/h (1 Bft) SO 1.3 C 2.2 C
21.01.2002 08:00 3.2 C 87 % 1025.7 hPa 0.0 l/m 5.7 km/h (1 Bft) SO 1.2 C 2.0 C
21.01.2002 09:00 3.5 C 85 % 1025.8 hPa 0.0 l/m 5.2 km/h (1 Bft) SO 1.2 C 2.3 C
21.01.2002 10:00 4.0 C 84 % 1025.4 hPa 0.0 l/m 2.7 km/h (1 Bft) SO 1.6 C 3.6 C
21.01.2002 11:00 5.0 C 79 % 1025.1 hPa 0.0 l/m 3.0 km/h (1 Bft) O-SO 1.6 C 4.3 C
21.01.2002 12:00 6.4 C 70 % 1024.9 hPa 0.0 l/m 2.6 km/h (1 Bft) O 1.3 C 6.1 C
21.01.2002 13:00 7.8 C 64 % 1023.5 hPa 0.0 l/m 2.2 km/h (1 Bft) SO 1.5 C 7.6 C
21.01.2002 14:00 8.8 C 59 % 1022.5 hPa 0.0 l/m 5.0 km/h (1 Bft) O-SO 1.3 C 8.3 C
21.01.2002 15:00 8.9 C 54 % 1021.2 hPa 0.0 l/m 2.6 km/h (1 Bft) O-SO 0.2 C 8.7 C
21.01.2002 16:00 7.1 C 66 % 1020.9 hPa 0.0 l/m 1.1 km/h (1 Bft) W 1.2 C 7.1 C
21.01.2002 17:00 3.6 C 79 % 1019.9 hPa 0.0 l/m 0.1 km/h (0 Bft) W-SW 0.3 C 3.6 C
21.01.2002 18:00 1.1 C 80 % 1019.7 hPa 0.0 l/m 0.9 km/h (0 Bft) O-SO -2.0 C 0.9 C
21.01.2002 19:00 -0.1 C 85 % 1018.9 hPa 0.0 l/m 2.8 km/h (1 Bft) O-SO -2.2 C -0.7 C
21.01.2002 20:00 -0.9 C 87 % 1018.3 hPa 0.0 l/m 0.9 km/h (0 Bft) O-SO -2.8 C -1.1 C
21.01.2002 21:00 -1.5 C 90 % 1017.8 hPa 0.0 l/m 1.8 km/h (1 Bft) O-SO -2.9 C -2.0 C
21.01.2002 22:00 -2.4 C 91 % 1017.8 hPa 0.0 l/m 0.8 km/h (0 Bft) O-SO -3.6 C -2.6 C
21.01.2002 23:00 -2.8 C 92 % 1017.0 hPa 0.0 l/m 0.1 km/h (0 Bft) N -4.0 C -2.8 C
22.01.2002 00:00 -1.9 C 94 % 1016.8 hPa 0.0 l/m 0.9 km/h (0 Bft) O -2.7 C -2.0 C
22.01.2002 01:00 -1.4 C 96 % 1016.1 hPa 0.0 l/m 0.1 km/h (0 Bft) N -2.0 C -1.4 C
22.01.2002 02:00 -1.9 C 97 % 1015.7 hPa 0.0 l/m 2.2 km/h (1 Bft) O-SO -2.3 C -2.7 C
22.01.2002 03:00 -2.2 C 98 % 1015.7 hPa 0.0 l/m 1.4 km/h (1 Bft) O-SO -2.4 C -2.4 C
22.01.2002 04:00 -2.5 C 98 % 1015.7 hPa 0.0 l/m 5.3 km/h (1 Bft) O-SO -2.8 C -4.4 C
22.01.2002 05:00 -3.0 C 94 % 1015.7 hPa 0.0 l/m 3.4 km/h (1 Bft) O-SO -3.8 C -4.2 C
22.01.2002 06:00 -3.1 C 97 % 1015.8 hPa 0.0 l/m 0.0 km/h (0 Bft) N -3.5 C -3.1 C
22.01.2002 07:00 -3.3 C 96 % 1016.8 hPa 0.0 l/m 0.0 km/h (0 Bft) N -3.9 C -3.3 C
22.01.2002 08:00 -3.3 C 94 % 1017.4 hPa 0.0 l/m 0.0 km/h (0 Bft) N -4.1 C -3.3 C
22.01.2002 09:00 -1.9 C 97 % 1017.8 hPa 0.0 l/m 0.0 km/h (0 Bft) N -2.4 C -1.9 C
22.01.2002 10:00 -0.9 C 91 % 1017.8 hPa 0.0 l/m 0.0 km/h (0 Bft) N -2.2 C -0.9 C
22.01.2002 11:00 0.5 C 88 % 1017.8 hPa 0.0 l/m 0.0 km/h (0 Bft) N -1.2 C 0.5 C
22.01.2002 12:00 3.2 C 78 % 1017.8 hPa 0.0 l/m 0.6 km/h (0 Bft) W-NW -0.3 C 3.2 C
22.01.2002 13:00 3.9 C 75 % 1017.8 hPa 0.0 l/m 0.2 km/h (0 Bft) W -0.1 C 3.9 C
22.01.2002 14:00 4.8 C 76 % 1017.8 hPa 0.0 l/m 4.7 km/h (1 Bft) W 1.0 C 4.0 C
22.01.2002 15:00 6.6 C 73 % 1018.0 hPa 0.0 l/m 9.1 km/h (2 Bft) W-NW 2.1 C 5.0 C
22.01.2002 16:00 6.8 C 74 % 1018.9 hPa 0.0 l/m 11.5 km/h (2 Bft) W-NW 2.5 C 4.6 C
22.01.2002 17:00 6.6 C 75 % 1018.9 hPa 0.0 l/m 18.6 km/h (3 Bft) W-NW 2.4 C 3.3 C
22.01.2002 18:00 6.3 C 73 % 1019.7 hPa 0.0 l/m 12.5 km/h (3 Bft) W-NW 1.8 C 4.0 C
22.01.2002 19:00 4.3 C 77 % 1019.9 hPa 0.0 l/m 2.9 km/h (1 Bft) W 0.6 C 3.7 C
22.01.2002 20:00 3.3 C 84 % 1019.9 hPa 0.0 l/m 0.5 km/h (0 Bft) SO 0.8 C 3.3 C
22.01.2002 21:00 2.3 C 88 % 1019.9 hPa 0.0 l/m 1.6 km/h (1 Bft) SO 0.5 C 1.9 C
22.01.2002 22:00 0.9 C 92 % 1020.2 hPa 0.0 l/m 1.4 km/h (1 Bft) O -0.3 C 0.5 C
22.01.2002 23:00 -0.4 C 93 % 1019.9 hPa 0.0 l/m 0.1 km/h (0 Bft) N -1.4 C -0.4 C
23.01.2002 00:00 -1.2 C 93 % 1019.9 hPa 0.0 l/m 0.0 km/h (0 Bft) N -2.2 C -1.2 C
23.01.2002 01:00 -1.3 C 95 % 1019.7 hPa 0.0 l/m 0.0 km/h (0 Bft) N -2.1 C -1.3 C
23.01.2002 02:00 -1.8 C 96 % 1018.9 hPa 0.0 l/m 0.1 km/h (0 Bft) NO -2.4 C -1.8 C
23.01.2002 03:00 -2.4 C 95 % 1017.9 hPa 0.0 l/m 0.0 km/h (0 Bft) N -3.1 C -2.4 C
23.01.2002 04:00 -2.2 C 99 % 1017.3 hPa 0.0 l/m 0.0 km/h (0 Bft) N -2.4 C -2.2 C
23.01.2002 05:00 -1.6 C 99 % 1016.8 hPa 0.0 l/m 0.6 km/h (0 Bft) NO -1.7 C -1.6 C
23.01.2002 06:00 -1.4 C 99 % 1016.0 hPa 0.0 l/m 0.0 km/h (0 Bft) NO -1.5 C -1.4 C
23.01.2002 07:00 -1.0 C 99 % 1015.7 hPa 0.0 l/m 0.9 km/h (0 Bft) NO -1.2 C -1.2 C
23.01.2002 08:00 -0.8 C 99 % 1014.9 hPa 0.0 l/m 0.0 km/h (0 Bft) N -0.9 C -0.8 C
23.01.2002 09:00 -0.6 C 99 % 1014.7 hPa 0.0 l/m 0.1 km/h (0 Bft) N -0.7 C -0.6 C
23.01.2002 10:00 0.7 C 99 % 1014.7 hPa 0.0 l/m 0.0 km/h (0 Bft) N 0.5 C 0.7 C
23.01.2002 11:00 1.2 C 99 % 1014.2 hPa 0.0 l/m 0.1 km/h (0 Bft) N 1.0 C 1.2 C
23.01.2002 12:00 1.7 C 94 % 1013.5 hPa 0.0 l/m 0.1 km/h (0 Bft) N 0.9 C 1.7 C
23.01.2002 13:00 2.8 C 88 % 1012.6 hPa 0.0 l/m 0.6 km/h (0 Bft) NO 1.0 C 2.8 C
23.01.2002 14:00 3.4 C 82 % 1011.6 hPa 0.0 l/m 1.6 km/h (1 Bft) SO 0.5 C 3.2 C
23.01.2002 15:00 3.6 C 80 % 1010.8 hPa 0.0 l/m 1.2 km/h (1 Bft) O 0.4 C 3.3 C
23.01.2002 16:00 3.8 C 78 % 1010.5 hPa 0.0 l/m 0.0 km/h (0 Bft) N 0.4 C 3.8 C
23.01.2002 17:00 3.8 C 78 % 1010.1 hPa 0.0 l/m 3.6 km/h (1 Bft) O-SO 0.3 C 3.1 C
23.01.2002 18:00 3.8 C 77 % 1009.4 hPa 0.0 l/m 0.2 km/h (0 Bft) N 0.3 C 3.8 C
23.01.2002 19:00 2.7 C 87 % 1008.6 hPa 0.3 l/m 0.0 km/h (0 Bft) N-NW 0.8 C 2.7 C
23.01.2002 20:00 2.4 C 93 % 1008.4 hPa 1.3 l/m 1.4 km/h (1 Bft) O-SO 1.3 C 2.1 C
23.01.2002 21:00 2.3 C 95 % 1008.4 hPa 0.9 l/m 2.5 km/h (1 Bft) O-SO 1.5 C 1.6 C
23.01.2002 22:00 2.9 C 96 % 1008.4 hPa 0.6 l/m 3.2 km/h (1 Bft) O-SO 2.3 C 2.2 C
23.01.2002 23:00 3.7 C 93 % 1008.4 hPa 0.9 l/m 9.4 km/h (2 Bft) SO 2.7 C 1.4 C
24.01.2002 00:00 3.6 C 92 % 1008.4 hPa 0.6 l/m 1.0 km/h (0 Bft) SO 2.4 C 3.5 C
24.01.2002 01:00 2.7 C 94 % 1007.9 hPa 1.3 l/m 0.0 km/h (0 Bft) N 1.9 C 2.7 C
24.01.2002 02:00 2.6 C 96 % 1007.5 hPa 1.9 l/m 1.9 km/h (1 Bft) O-SO 2.0 C 2.1 C
24.01.2002 03:00 3.2 C 97 % 1007.4 hPa 1.9 l/m 5.9 km/h (2 Bft) SO 2.7 C 1.8 C
24.01.2002 04:00 4.0 C 96 % 1007.3 hPa 1.3 l/m 5.5 km/h (1 Bft) S-SO 3.5 C 3.0 C
24.01.2002 05:00 4.5 C 95 % 1007.3 hPa 0.6 l/m 10.6 km/h (2 Bft) S-SW 3.8 C 2.1 C
24.01.2002 06:00 4.5 C 94 % 1007.3 hPa 0.0 l/m 1.0 km/h (0 Bft) S 3.6 C 4.4 C
24.01.2002 07:00 4.4 C 93 % 1007.3 hPa 0.0 l/m 7.0 km/h (2 Bft) SW 3.3 C 2.8 C
24.01.2002 08:00 4.3 C 93 % 1007.9 hPa 0.0 l/m 6.9 km/h (2 Bft) SO 3.2 C 2.8 C
24.01.2002 09:00 4.5 C 89 % 1008.4 hPa 0.3 l/m 9.9 km/h (2 Bft) SO 2.8 C 2.2 C
24.01.2002 10:00 5.2 C 85 % 1008.4 hPa 0.0 l/m 12.3 km/h (3 Bft) SO 2.9 C 2.7 C
24.01.2002 11:00 6.3 C 78 % 1008.4 hPa 0.0 l/m 12.2 km/h (2 Bft) S-SO 2.8 C 4.0 C
24.01.2002 12:00 6.7 C 75 % 1008.4 hPa 0.0 l/m 20.6 km/h (4 Bft) S-SO 2.6 C 3.2 C
24.01.2002 13:00 7.0 C 72 % 1008.4 hPa 0.0 l/m 17.6 km/h (3 Bft) S-SO 2.3 C 4.0 C
24.01.2002 14:00 7.0 C 72 % 1008.8 hPa 0.0 l/m 16.4 km/h (3 Bft) S-SO 2.3 C 4.1 C
24.01.2002 15:00 7.2 C 71 % 1009.4 hPa 0.0 l/m 17.0 km/h (3 Bft) S 2.3 C 4.2 C
24.01.2002 16:00 6.7 C 80 % 1010.3 hPa 0.3 l/m 7.1 km/h (2 Bft) W 3.5 C 5.6 C
24.01.2002 17:00 6.3 C 84 % 1011.3 hPa 0.0 l/m 7.7 km/h (2 Bft) S-SO 3.7 C 4.9 C
24.01.2002 18:00 6.1 C 83 % 1012.4 hPa 0.0 l/m 14.6 km/h (3 Bft) W 3.4 C 3.5 C
24.01.2002 19:00 6.0 C 82 % 1013.6 hPa 0.0 l/m 9.8 km/h (2 Bft) W 3.1 C 4.1 C
24.01.2002 20:00 5.9 C 81 % 1014.8 hPa 0.6 l/m 7.6 km/h (2 Bft) SO 2.8 C 4.5 C
24.01.2002 21:00 5.5 C 86 % 1015.7 hPa 0.0 l/m 6.2 km/h (2 Bft) S 3.3 C 4.3 C
24.01.2002 22:00 5.6 C 85 % 1016.7 hPa 0.0 l/m 7.3 km/h (2 Bft) S 3.2 C 4.1 C
24.01.2002 23:00 5.9 C 81 % 1017.0 hPa 0.6 l/m 11.4 km/h (2 Bft) S 2.9 C 3.6 C
25.01.2002 00:00 5.3 C 88 % 1018.2 hPa 0.6 l/m 7.9 km/h (2 Bft) SW 3.5 C 3.6 C
25.01.2002 01:00 5.2 C 90 % 1018.9 hPa 0.3 l/m 8.0 km/h (2 Bft) SO 3.6 C 3.5 C
25.01.2002 02:00 5.2 C 89 % 1019.5 hPa 0.9 l/m 8.6 km/h (2 Bft) W 3.5 C 3.4 C
25.01.2002 03:00 5.0 C 92 % 1019.9 hPa 0.9 l/m 15.8 km/h (3 Bft) W 3.8 C 1.8 C
25.01.2002 04:00 5.1 C 91 % 1020.7 hPa 0.3 l/m 5.7 km/h (1 Bft) SW 3.7 C 4.0 C
25.01.2002 05:00 4.9 C 91 % 1021.7 hPa 0.0 l/m 9.3 km/h (2 Bft) W-SW 3.6 C 2.9 C
25.01.2002 06:00 4.9 C 91 % 1022.6 hPa 0.3 l/m 17.6 km/h (3 Bft) W 3.5 C 1.5 C
25.01.2002 07:00 5.1 C 91 % 1023.6 hPa 0.6 l/m 15.1 km/h (3 Bft) W 3.6 C 2.1 C
25.01.2002 08:00 5.0 C 90 % 1024.5 hPa 0.3 l/m 22.2 km/h (4 Bft) W-NW 3.5 C 1.0 C
25.01.2002 09:00 5.4 C 86 % 1025.9 hPa 0.0 l/m 12.6 km/h (3 Bft) W-NW 3.3 C 2.8 C
25.01.2002 10:00 6.1 C 79 % 1026.2 hPa 0.0 l/m 16.7 km/h (3 Bft) W-NW 2.8 C 3.2 C
25.01.2002 11:00 6.1 C 73 % 1027.1 hPa 0.0 l/m 23.7 km/h (4 Bft) W-NW 1.5 C 2.1 C
25.01.2002 12:00 7.4 C 64 % 1025.6 hPa 0.0 l/m 17.9 km/h (3 Bft) W-NW 0.9 C 4.4 C
25.01.2002 13:00 7.6 C 59 % 1025.1 hPa 0.0 l/m 19.9 km/h (4 Bft) W-NW 0.2 C 4.5 C
25.01.2002 14:00 8.5 C 52 % 1024.9 hPa 0.0 l/m 14.4 km/h (3 Bft) W-NW -0.7 C 6.2 C
25.01.2002 15:00 8.3 C 51 % 1024.2 hPa 0.0 l/m 11.7 km/h (2 Bft) W -1.1 C 6.5 C
25.01.2002 16:00 7.9 C 59 % 1024.1 hPa 0.0 l/m 5.1 km/h (1 Bft) W-NW 0.4 C 7.1 C
25.01.2002 17:00 5.5 C 69 % 1024.1 hPa 0.0 l/m 1.1 km/h (0 Bft) SO 0.3 C 5.4 C
25.01.2002 18:00 3.9 C 78 % 1024.4 hPa 0.0 l/m 1.6 km/h (1 Bft) SO 0.4 C 3.5 C
25.01.2002 19:00 2.5 C 84 % 1024.3 hPa 0.0 l/m 0.8 km/h (0 Bft) O-SO 0.1 C 2.3 C
25.01.2002 20:00 1.7 C 87 % 1024.1 hPa 0.0 l/m 0.5 km/h (0 Bft) SO -0.3 C 1.7 C
25.01.2002 21:00 1.5 C 88 % 1024.1 hPa 0.0 l/m 2.4 km/h (1 Bft) SO -0.3 C 1.0 C
25.01.2002 22:00 1.4 C 90 % 1024.1 hPa 0.0 l/m 2.1 km/h (1 Bft) O-SO -0.1 C 0.9 C
25.01.2002 23:00 1.5 C 88 % 1024.0 hPa 0.0 l/m 2.6 km/h (1 Bft) O-SO -0.3 C 0.8 C
26.01.2002 00:00 1.6 C 88 % 1023.0 hPa 0.0 l/m 4.2 km/h (1 Bft) SO -0.1 C 0.5 C
26.01.2002 01:00 2.5 C 86 % 1023.0 hPa 0.0 l/m 4.0 km/h (1 Bft) SO 0.4 C 1.5 C
26.01.2002 02:00 3.2 C 82 % 1023.4 hPa 0.0 l/m 17.0 km/h (3 Bft) SO 0.5 C -0.6 C
26.01.2002 03:00 3.4 C 85 % 1024.1 hPa 1.6 l/m 11.1 km/h (2 Bft) SO 1.1 C 0.7 C
26.01.2002 04:00 3.6 C 91 % 1024.1 hPa 0.9 l/m 6.3 km/h (2 Bft) SO 2.2 C 2.2 C
26.01.2002 05:00 3.2 C 93 % 1024.6 hPa 0.3 l/m 1.0 km/h (0 Bft) O-SO 2.1 C 2.9 C
26.01.2002 06:00 4.0 C 93 % 1025.0 hPa 0.3 l/m 1.5 km/h (1 Bft) O-SO 3.0 C 3.7 C
26.01.2002 07:00 4.6 C 93 % 1025.2 hPa 0.0 l/m 5.5 km/h (1 Bft) S-SO 3.6 C 3.6 C
26.01.2002 08:00 4.9 C 91 % 1026.1 hPa 0.0 l/m 11.8 km/h (2 Bft) SO 3.5 C 2.4 C
26.01.2002 09:00 5.4 C 84 % 1025.3 hPa 0.0 l/m 12.4 km/h (3 Bft) SO 2.9 C 2.8 C
26.01.2002 10:00 6.6 C 77 % 1025.1 hPa 0.0 l/m 17.4 km/h (3 Bft) SO 2.9 C 3.6 C
26.01.2002 11:00 7.8 C 71 % 1025.1 hPa 0.0 l/m 17.5 km/h (3 Bft) SO 2.9 C 4.9 C
26.01.2002 12:00 9.6 C 64 % 1025.1 hPa 0.0 l/m 18.4 km/h (3 Bft) SO 3.0 C 7.6 C
26.01.2002 13:00 11.1 C 54 % 1024.3 hPa 0.0 l/m 17.4 km/h (3 Bft) S 2.1 C 11.1 C
26.01.2002 14:00 12.1 C 54 % 1023.4 hPa 0.0 l/m 13.9 km/h (3 Bft) S 3.1 C 12.1 C
26.01.2002 15:00 12.5 C 51 % 1023.0 hPa 0.0 l/m 15.9 km/h (3 Bft) S-SW 2.5 C 12.5 C
26.01.2002 16:00 11.4 C 50 % 1022.5 hPa 0.0 l/m 14.3 km/h (3 Bft) SW 1.2 C 11.4 C
26.01.2002 17:00 9.5 C 56 % 1022.0 hPa 0.0 l/m 9.5 km/h (2 Bft) S-SO 1.1 C 8.7 C
26.01.2002 18:00 8.3 C 56 % 1022.0 hPa 0.0 l/m 8.3 km/h (2 Bft) W 0.0 C 7.0 C
26.01.2002 19:00 9.9 C 46 % 1022.0 hPa 0.0 l/m 14.2 km/h (3 Bft) W -1.3 C 9.3 C
26.01.2002 20:00 9.4 C 51 % 1021.5 hPa 0.0 l/m 8.8 km/h (2 Bft) SO -0.2 C 8.3 C
26.01.2002 21:00 8.1 C 59 % 1020.8 hPa 0.0 l/m 14.2 km/h (3 Bft) SO 0.6 C 5.9 C
26.01.2002 22:00 7.7 C 60 % 1019.9 hPa 0.0 l/m 11.5 km/h (2 Bft) SO 0.4 C 5.8 C
26.01.2002 23:00 7.0 C 60 % 1019.9 hPa 0.0 l/m 8.6 km/h (2 Bft) SO -0.3 C 5.5 C
27.01.2002 00:00 7.8 C 54 % 1019.7 hPa 0.0 l/m 12.2 km/h (2 Bft) SO -0.9 C 5.8 C
27.01.2002 01:00 8.5 C 52 % 1018.9 hPa 0.0 l/m 21.6 km/h (4 Bft) SO -0.9 C 5.4 C
27.01.2002 02:00 10.7 C 50 % 1019.6 hPa 0.0 l/m 35.8 km/h (5 Bft) W 0.5 C 9.6 C
27.01.2002 03:00 9.4 C 57 % 1018.4 hPa 0.0 l/m 15.2 km/h (3 Bft) W 1.4 C 7.4 C
27.01.2002 04:00 11.1 C 45 % 1017.2 hPa 0.0 l/m 24.1 km/h (4 Bft) W-NW -0.5 C 11.0 C
27.01.2002 05:00 12.2 C 40 % 1017.2 hPa 0.0 l/m 60.5 km/h (7 Bft) W-NW -1.0 C 12.2 C
27.01.2002 06:00 9.7 C 56 % 1018.3 hPa 0.0 l/m 38.6 km/h (5 Bft) W-NW 1.4 C 7.3 C
27.01.2002 07:00 8.0 C 70 % 1018.6 hPa 0.6 l/m 30.3 km/h (5 Bft) W 2.8 C 4.1 C
27.01.2002 08:00 7.5 C 75 % 1018.9 hPa 0.3 l/m 32.3 km/h (5 Bft) W 3.4 C 3.2 C
27.01.2002 09:00 6.9 C 81 % 1019.3 hPa 0.9 l/m 28.6 km/h (4 Bft) W 3.8 C 2.7 C
27.01.2002 10:00 7.2 C 81 % 1019.9 hPa 0.6 l/m 27.3 km/h (4 Bft) W 4.2 C 3.2 C
27.01.2002 11:00 8.0 C 77 % 1019.9 hPa 0.3 l/m 21.5 km/h (4 Bft) W 4.2 C 4.7 C
27.01.2002 12:00 7.8 C 82 % 1019.9 hPa 0.6 l/m 14.3 km/h (3 Bft) W 4.9 C 5.5 C
27.01.2002 13:00 7.7 C 84 % 1019.9 hPa 1.3 l/m 5.8 km/h (2 Bft) W-SW 5.2 C 6.8 C
27.01.2002 14:00 7.5 C 87 % 1019.9 hPa 1.6 l/m 7.5 km/h (2 Bft) SW 5.5 C 6.4 C
27.01.2002 15:00 7.6 C 89 % 1020.9 hPa 3.1 l/m 9.0 km/h (2 Bft) SW 5.8 C 6.0 C
27.01.2002 16:00 7.8 C 90 % 1021.3 hPa 1.6 l/m 10.3 km/h (2 Bft) S 6.3 C 6.1 C
27.01.2002 17:00 8.0 C 91 % 1022.2 hPa 1.3 l/m 8.6 km/h (2 Bft) S 6.7 C 6.7 C
27.01.2002 18:00 8.2 C 92 % 1023.1 hPa 1.9 l/m 9.1 km/h (2 Bft) S 7.0 C 6.8 C
27.01.2002 19:00 8.6 C 91 % 1024.1 hPa 0.0 l/m 10.1 km/h (2 Bft) W-SW 7.2 C 7.1 C
27.01.2002 20:00 9.1 C 89 % 1024.1 hPa 0.0 l/m 7.8 km/h (2 Bft) SO 7.3 C 8.0 C
27.01.2002 21:00 9.3 C 87 % 1024.5 hPa 0.0 l/m 8.8 km/h (2 Bft) S 7.3 C 8.1 C
27.01.2002 22:00 9.5 C 84 % 1025.1 hPa 0.0 l/m 10.9 km/h (2 Bft) SO 6.9 C 7.9 C
27.01.2002 23:00 9.9 C 82 % 1025.1 hPa 0.0 l/m 14.4 km/h (3 Bft) W 6.9 C 8.6 C
Min-Datum _ 22.01.02 27.01.02 24.01.02 - 21.01.02 - 22.01.02 22.01.02
_ Min-Zeit 08:05 05:04 01:34 - 00:25 - 08:05 04:59
Minimum _ -3.7 C 34 % 1007.3 hPa - 0.0 km/h (0 Bft) - -4.7 C -6.9 C
Max-Datum _ 27.01.02 22.01.02 25.01.02 27.01.02 27.01.02 - 27.01.02 27.01.02
_ Max-Zeit 05:04 06:23 11:05 14:00 05:13 - 20:04 05:04
Maximum _ 13.3 C 99 % 1027.2 hPa 3.1 l/m 106.7 km/h
W-NW (11 Bft)
- 7.5 C 13.3 C
Durchschnitt _ 4.5 C 81 % 1018.8 hPa #37.9 l/m 8.2 km/h (2 Bft) SO 1.3 C 3.2 C

Durchschnitt Minimum Temp.3.9 C
Durchschnitt Maximum Temp.5.0 C
© Kaiko 2002